sensor_id;sensor_type;location;lat;lon;timestamp;pressure;altitude;pressure_sealevel;temperature
15680;BMP180;15488;48.114;11.532;2023-11-19T00:00:08;95392.00;;;13.00
15680;BMP180;15488;48.114;11.532;2023-11-19T00:02:40;95378.00;;;13.00
15680;BMP180;15488;48.114;11.532;2023-11-19T00:05:08;95375.00;;;13.00
15680;BMP180;15488;48.114;11.532;2023-11-19T00:07:37;95371.00;;;13.00
15680;BMP180;15488;48.114;11.532;2023-11-19T00:10:08;95375.00;;;13.00
15680;BMP180;15488;48.114;11.532;2023-11-19T00:12:37;95375.00;;;13.10
15680;BMP180;15488;48.114;11.532;2023-11-19T00:15:05;95361.00;;;13.10
15680;BMP180;15488;48.114;11.532;2023-11-19T00:17:38;95353.00;;;13.10
15680;BMP180;15488;48.114;11.532;2023-11-19T00:20:07;95349.00;;;13.10
15680;BMP180;15488;48.114;11.532;2023-11-19T00:22:35;95354.00;;;13.10
15680;BMP180;15488;48.114;11.532;2023-11-19T00:25:05;95339.00;;;13.10
15680;BMP180;15488;48.114;11.532;2023-11-19T00:27:32;95341.00;;;13.10
15680;BMP180;15488;48.114;11.532;2023-11-19T00:30:00;95333.00;;;13.10
15680;BMP180;15488;48.114;11.532;2023-11-19T00:32:31;95330.00;;;13.20
15680;BMP180;15488;48.114;11.532;2023-11-19T00:35:00;95330.00;;;13.20
15680;BMP180;15488;48.114;11.532;2023-11-19T00:37:28;95321.00;;;13.20
15680;BMP180;15488;48.114;11.532;2023-11-19T00:39:56;95319.00;;;13.20
15680;BMP180;15488;48.114;11.532;2023-11-19T00:42:24;95316.00;;;13.20
15680;BMP180;15488;48.114;11.532;2023-11-19T00:44:51;95325.00;;;13.30
15680;BMP180;15488;48.114;11.532;2023-11-19T00:47:19;95318.00;;;13.30
15680;BMP180;15488;48.114;11.532;2023-11-19T00:49:47;95315.00;;;13.30
15680;BMP180;15488;48.114;11.532;2023-11-19T00:52:17;95312.00;;;13.30
15680;BMP180;15488;48.114;11.532;2023-11-19T00:54:46;95309.00;;;13.30
15680;BMP180;15488;48.114;11.532;2023-11-19T00:57:13;95315.00;;;13.40
15680;BMP180;15488;48.114;11.532;2023-11-19T00:59:42;95313.00;;;13.40
15680;BMP180;15488;48.114;11.532;2023-11-19T01:02:09;95311.00;;;13.40
15680;BMP180;15488;48.114;11.532;2023-11-19T01:04:37;95306.00;;;13.50
15680;BMP180;15488;48.114;11.532;2023-11-19T01:07:05;95310.00;;;13.50
15680;BMP180;15488;48.114;11.532;2023-11-19T01:09:34;95299.00;;;13.60
15680;BMP180;15488;48.114;11.532;2023-11-19T01:12:01;95297.00;;;13.50
15680;BMP180;15488;48.114;11.532;2023-11-19T01:14:30;95301.00;;;13.50
15680;BMP180;15488;48.114;11.532;2023-11-19T01:16:57;95295.00;;;13.50
15680;BMP180;15488;48.114;11.532;2023-11-19T01:19:25;95295.00;;;13.70
15680;BMP180;15488;48.114;11.532;2023-11-19T01:21:52;95293.00;;;13.60
15680;BMP180;15488;48.114;11.532;2023-11-19T01:24:20;95294.00;;;13.70
15680;BMP180;15488;48.114;11.532;2023-11-19T01:26:49;95286.00;;;13.60
15680;BMP180;15488;48.114;11.532;2023-11-19T01:29:16;95295.00;;;13.60
15680;BMP180;15488;48.114;11.532;2023-11-19T01:31:45;95282.00;;;13.60
15680;BMP180;15488;48.114;11.532;2023-11-19T01:34:13;95282.00;;;13.50
15680;BMP180;15488;48.114;11.532;2023-11-19T01:36:41;95275.00;;;13.50
15680;BMP180;15488;48.114;11.532;2023-11-19T01:39:08;95275.00;;;13.50
15680;BMP180;15488;48.114;11.532;2023-11-19T01:41:36;95272.00;;;13.60
15680;BMP180;15488;48.114;11.532;2023-11-19T01:44:06;95271.00;;;13.60
15680;BMP180;15488;48.114;11.532;2023-11-19T01:46:35;95268.00;;;13.60
15680;BMP180;15488;48.114;11.532;2023-11-19T01:49:03;95258.00;;;13.60
15680;BMP180;15488;48.114;11.532;2023-11-19T01:51:31;95259.00;;;13.60
15680;BMP180;15488;48.114;11.532;2023-11-19T01:54:00;95251.00;;;13.70
15680;BMP180;15488;48.114;11.532;2023-11-19T01:56:29;95256.00;;;13.70
15680;BMP180;15488;48.114;11.532;2023-11-19T01:58:57;95257.00;;;13.60
15680;BMP180;15488;48.114;11.532;2023-11-19T02:01:27;95258.00;;;13.50
15680;BMP180;15488;48.114;11.532;2023-11-19T02:03:56;95245.00;;;13.50
15680;BMP180;15488;48.114;11.532;2023-11-19T02:06:25;95234.00;;;13.50
15680;BMP180;15488;48.114;11.532;2023-11-19T02:08:53;95235.00;;;13.60
15680;BMP180;15488;48.114;11.532;2023-11-19T02:11:20;95240.00;;;13.60
15680;BMP180;15488;48.114;11.532;2023-11-19T02:13:48;95230.00;;;13.60
15680;BMP180;15488;48.114;11.532;2023-11-19T02:16:15;95220.00;;;13.60
15680;BMP180;15488;48.114;11.532;2023-11-19T02:18:44;95211.00;;;13.70
15680;BMP180;15488;48.114;11.532;2023-11-19T02:21:11;95207.00;;;13.60
15680;BMP180;15488;48.114;11.532;2023-11-19T02:23:41;95189.00;;;13.70
15680;BMP180;15488;48.114;11.532;2023-11-19T02:26:14;95208.00;;;13.80
15680;BMP180;15488;48.114;11.532;2023-11-19T02:28:47;95193.00;;;13.70
15680;BMP180;15488;48.114;11.532;2023-11-19T02:31:14;95186.00;;;13.70
15680;BMP180;15488;48.114;11.532;2023-11-19T02:33:42;95173.00;;;13.70
15680;BMP180;15488;48.114;11.532;2023-11-19T02:36:10;95181.00;;;13.80
15680;BMP180;15488;48.114;11.532;2023-11-19T02:38:37;95177.00;;;13.80
15680;BMP180;15488;48.114;11.532;2023-11-19T02:41:06;95168.00;;;13.90
15680;BMP180;15488;48.114;11.532;2023-11-19T02:43:34;95174.00;;;14.00
15680;BMP180;15488;48.114;11.532;2023-11-19T02:46:03;95180.00;;;14.10
15680;BMP180;15488;48.114;11.532;2023-11-19T02:48:33;95171.00;;;14.20
15680;BMP180;15488;48.114;11.532;2023-11-19T02:51:01;95170.00;;;14.30
15680;BMP180;15488;48.114;11.532;2023-11-19T02:53:29;95160.00;;;14.20
15680;BMP180;15488;48.114;11.532;2023-11-19T02:55:57;95158.00;;;14.30
15680;BMP180;15488;48.114;11.532;2023-11-19T02:58:28;95150.00;;;14.30
15680;BMP180;15488;48.114;11.532;2023-11-19T03:00:56;95139.00;;;14.40
15680;BMP180;15488;48.114;11.532;2023-11-19T03:03:27;95131.00;;;14.50
15680;BMP180;15488;48.114;11.532;2023-11-19T03:05:57;95142.00;;;14.60
15680;BMP180;15488;48.114;11.532;2023-11-19T03:08:24;95143.00;;;14.70
15680;BMP180;15488;48.114;11.532;2023-11-19T03:10:52;95136.00;;;14.70
15680;BMP180;15488;48.114;11.532;2023-11-19T03:13:20;95132.00;;;14.70
15680;BMP180;15488;48.114;11.532;2023-11-19T03:15:48;95131.00;;;14.80
15680;BMP180;15488;48.114;11.532;2023-11-19T03:18:15;95122.00;;;14.90
15680;BMP180;15488;48.114;11.532;2023-11-19T03:20:44;95142.00;;;14.90
15680;BMP180;15488;48.114;11.532;2023-11-19T03:23:13;95129.00;;;14.90
15680;BMP180;15488;48.114;11.532;2023-11-19T03:25:40;95133.00;;;14.90
15680;BMP180;15488;48.114;11.532;2023-11-19T03:28:08;95123.00;;;15.00
15680;BMP180;15488;48.114;11.532;2023-11-19T03:30:37;95126.00;;;15.00
15680;BMP180;15488;48.114;11.532;2023-11-19T03:33:05;95133.00;;;15.00
15680;BMP180;15488;48.114;11.532;2023-11-19T03:35:33;95127.00;;;15.20
15680;BMP180;15488;48.114;11.532;2023-11-19T03:38:02;95127.00;;;15.10
15680;BMP180;15488;48.114;11.532;2023-11-19T03:40:29;95128.00;;;15.20
15680;BMP180;15488;48.114;11.532;2023-11-19T03:42:57;95129.00;;;15.30
15680;BMP180;15488;48.114;11.532;2023-11-19T03:45:25;95129.00;;;15.30
15680;BMP180;15488;48.114;11.532;2023-11-19T03:47:52;95131.00;;;15.30
15680;BMP180;15488;48.114;11.532;2023-11-19T03:50:20;95133.00;;;15.40
15680;BMP180;15488;48.114;11.532;2023-11-19T03:52:47;95133.00;;;15.40
15680;BMP180;15488;48.114;11.532;2023-11-19T03:55:16;95142.00;;;15.40
15680;BMP180;15488;48.114;11.532;2023-11-19T03:57:44;95131.00;;;15.50
15680;BMP180;15488;48.114;11.532;2023-11-19T04:00:13;95128.00;;;15.50
15680;BMP180;15488;48.114;11.532;2023-11-19T04:02:41;95129.00;;;15.60
15680;BMP180;15488;48.114;11.532;2023-11-19T04:05:11;95122.00;;;15.50
15680;BMP180;15488;48.114;11.532;2023-11-19T04:07:39;95126.00;;;15.60
15680;BMP180;15488;48.114;11.532;2023-11-19T04:10:07;95131.00;;;15.60
15680;BMP180;15488;48.114;11.532;2023-11-19T04:12:36;95126.00;;;15.70
15680;BMP180;15488;48.114;11.532;2023-11-19T04:15:05;95135.00;;;15.70
15680;BMP180;15488;48.114;11.532;2023-11-19T04:17:32;95135.00;;;15.60
15680;BMP180;15488;48.114;11.532;2023-11-19T04:20:00;95135.00;;;15.60
15680;BMP180;15488;48.114;11.532;2023-11-19T04:22:27;95136.00;;;15.70
15680;BMP180;15488;48.114;11.532;2023-11-19T04:24:55;95139.00;;;15.80
15680;BMP180;15488;48.114;11.532;2023-11-19T04:27:22;95141.00;;;15.90
15680;BMP180;15488;48.114;11.532;2023-11-19T04:29:51;95139.00;;;15.80
15680;BMP180;15488;48.114;11.532;2023-11-19T04:32:18;95140.00;;;15.70
15680;BMP180;15488;48.114;11.532;2023-11-19T04:34:47;95137.00;;;15.80
15680;BMP180;15488;48.114;11.532;2023-11-19T04:37:14;95146.00;;;15.90
15680;BMP180;15488;48.114;11.532;2023-11-19T04:39:43;95144.00;;;15.90
15680;BMP180;15488;48.114;11.532;2023-11-19T04:42:11;95142.00;;;15.90
15680;BMP180;15488;48.114;11.532;2023-11-19T04:44:38;95140.00;;;15.90
15680;BMP180;15488;48.114;11.532;2023-11-19T04:47:07;95141.00;;;15.80
15680;BMP180;15488;48.114;11.532;2023-11-19T04:49:40;95131.00;;;15.80
15680;BMP180;15488;48.114;11.532;2023-11-19T04:52:09;95133.00;;;15.80
15680;BMP180;15488;48.114;11.532;2023-11-19T04:54:41;95142.00;;;15.80
15680;BMP180;15488;48.114;11.532;2023-11-19T04:57:09;95138.00;;;15.80
15680;BMP180;15488;48.114;11.532;2023-11-19T04:59:38;95147.00;;;15.80
15680;BMP180;15488;48.114;11.532;2023-11-19T05:02:07;95150.00;;;16.00
15680;BMP180;15488;48.114;11.532;2023-11-19T05:04:35;95150.00;;;15.80
15680;BMP180;15488;48.114;11.532;2023-11-19T05:07:03;95155.00;;;15.90
15680;BMP180;15488;48.114;11.532;2023-11-19T05:09:31;95147.00;;;16.00
15680;BMP180;15488;48.114;11.532;2023-11-19T05:11:59;95150.00;;;15.90
15680;BMP180;15488;48.114;11.532;2023-11-19T05:14:27;95151.00;;;15.90
15680;BMP180;15488;48.114;11.532;2023-11-19T05:16:55;95150.00;;;15.90
15680;BMP180;15488;48.114;11.532;2023-11-19T05:19:24;95151.00;;;15.90
15680;BMP180;15488;48.114;11.532;2023-11-19T05:21:51;95156.00;;;16.00
15680;BMP180;15488;48.114;11.532;2023-11-19T05:24:19;95155.00;;;15.90
15680;BMP180;15488;48.114;11.532;2023-11-19T05:26:46;95162.00;;;15.90
15680;BMP180;15488;48.114;11.532;2023-11-19T05:29:14;95163.00;;;16.00
15680;BMP180;15488;48.114;11.532;2023-11-19T05:31:41;95165.00;;;16.00
15680;BMP180;15488;48.114;11.532;2023-11-19T05:34:09;95175.00;;;15.90
15680;BMP180;15488;48.114;11.532;2023-11-19T05:36:37;95167.00;;;15.90
15680;BMP180;15488;48.114;11.532;2023-11-19T05:39:05;95168.00;;;16.00
15680;BMP180;15488;48.114;11.532;2023-11-19T05:41:33;95177.00;;;16.00
15680;BMP180;15488;48.114;11.532;2023-11-19T05:44:00;95180.00;;;16.10
15680;BMP180;15488;48.114;11.532;2023-11-19T05:46:28;95187.00;;;16.20
15680;BMP180;15488;48.114;11.532;2023-11-19T05:48:55;95178.00;;;16.10
15680;BMP180;15488;48.114;11.532;2023-11-19T05:51:22;95184.00;;;16.10
15680;BMP180;15488;48.114;11.532;2023-11-19T05:53:52;95176.00;;;16.20
15680;BMP180;15488;48.114;11.532;2023-11-19T05:56:21;95186.00;;;16.10
15680;BMP180;15488;48.114;11.532;2023-11-19T05:58:49;95179.00;;;16.00
15680;BMP180;15488;48.114;11.532;2023-11-19T06:01:16;95177.00;;;16.00
15680;BMP180;15488;48.114;11.532;2023-11-19T06:03:44;95179.00;;;16.00
15680;BMP180;15488;48.114;11.532;2023-11-19T06:06:15;95176.00;;;15.90
15680;BMP180;15488;48.114;11.532;2023-11-19T06:08:43;95170.00;;;16.00
15680;BMP180;15488;48.114;11.532;2023-11-19T06:11:12;95175.00;;;16.00
15680;BMP180;15488;48.114;11.532;2023-11-19T06:13:44;95175.00;;;16.00
15680;BMP180;15488;48.114;11.532;2023-11-19T06:16:12;95182.00;;;15.80
15680;BMP180;15488;48.114;11.532;2023-11-19T06:18:39;95182.00;;;15.90
15680;BMP180;15488;48.114;11.532;2023-11-19T06:21:07;95184.00;;;15.90
15680;BMP180;15488;48.114;11.532;2023-11-19T06:23:35;95173.00;;;15.90
15680;BMP180;15488;48.114;11.532;2023-11-19T06:26:03;95181.00;;;15.90
15680;BMP180;15488;48.114;11.532;2023-11-19T06:28:32;95173.00;;;15.90
15680;BMP180;15488;48.114;11.532;2023-11-19T06:31:00;95174.00;;;16.00
15680;BMP180;15488;48.114;11.532;2023-11-19T06:33:27;95181.00;;;16.00
15680;BMP180;15488;48.114;11.532;2023-11-19T06:35:55;95170.00;;;16.10
15680;BMP180;15488;48.114;11.532;2023-11-19T06:38:22;95173.00;;;16.10
15680;BMP180;15488;48.114;11.532;2023-11-19T06:40:50;95169.00;;;16.10
15680;BMP180;15488;48.114;11.532;2023-11-19T06:43:17;95175.00;;;16.10
15680;BMP180;15488;48.114;11.532;2023-11-19T06:45:46;95170.00;;;16.20
15680;BMP180;15488;48.114;11.532;2023-11-19T06:48:13;95174.00;;;16.20
15680;BMP180;15488;48.114;11.532;2023-11-19T06:50:41;95182.00;;;16.30
15680;BMP180;15488;48.114;11.532;2023-11-19T06:53:09;95186.00;;;16.30
15680;BMP180;15488;48.114;11.532;2023-11-19T06:55:37;95183.00;;;16.30
15680;BMP180;15488;48.114;11.532;2023-11-19T06:58:06;95189.00;;;16.20
15680;BMP180;15488;48.114;11.532;2023-11-19T07:00:33;95183.00;;;16.30
15680;BMP180;15488;48.114;11.532;2023-11-19T07:03:03;95193.00;;;16.20
15680;BMP180;15488;48.114;11.532;2023-11-19T07:05:32;95192.00;;;16.20
15680;BMP180;15488;48.114;11.532;2023-11-19T07:08:00;95206.00;;;16.30
15680;BMP180;15488;48.114;11.532;2023-11-19T07:10:27;95205.00;;;16.40
15680;BMP180;15488;48.114;11.532;2023-11-19T07:12:56;95202.00;;;16.50
15680;BMP180;15488;48.114;11.532;2023-11-19T07:15:23;95202.00;;;16.50
15680;BMP180;15488;48.114;11.532;2023-11-19T07:17:51;95206.00;;;16.40
15680;BMP180;15488;48.114;11.532;2023-11-19T07:20:21;95203.00;;;16.50
15680;BMP180;15488;48.114;11.532;2023-11-19T07:22:49;95209.00;;;16.60
15680;BMP180;15488;48.114;11.532;2023-11-19T07:25:16;95204.00;;;16.60
15680;BMP180;15488;48.114;11.532;2023-11-19T07:27:44;95210.00;;;16.50
15680;BMP180;15488;48.114;11.532;2023-11-19T07:30:13;95205.00;;;16.50
15680;BMP180;15488;48.114;11.532;2023-11-19T07:32:41;95217.00;;;16.50
15680;BMP180;15488;48.114;11.532;2023-11-19T07:35:09;95212.00;;;16.50
15680;BMP180;15488;48.114;11.532;2023-11-19T07:37:38;95217.00;;;16.60
15680;BMP180;15488;48.114;11.532;2023-11-19T07:40:06;95227.00;;;16.60
15680;BMP180;15488;48.114;11.532;2023-11-19T07:42:34;95236.00;;;16.70
15680;BMP180;15488;48.114;11.532;2023-11-19T07:45:02;95232.00;;;16.80
15680;BMP180;15488;48.114;11.532;2023-11-19T07:47:31;95236.00;;;16.70
15680;BMP180;15488;48.114;11.532;2023-11-19T07:49:59;95237.00;;;16.70
15680;BMP180;15488;48.114;11.532;2023-11-19T07:52:26;95237.00;;;16.80
15680;BMP180;15488;48.114;11.532;2023-11-19T07:54:56;95240.00;;;16.80
15680;BMP180;15488;48.114;11.532;2023-11-19T07:57:23;95247.00;;;16.80
15680;BMP180;15488;48.114;11.532;2023-11-19T07:59:53;95248.00;;;16.90
15680;BMP180;15488;48.114;11.532;2023-11-19T08:02:21;95238.00;;;16.90
15680;BMP180;15488;48.114;11.532;2023-11-19T08:04:49;95253.00;;;16.90
15680;BMP180;15488;48.114;11.532;2023-11-19T08:07:18;95242.00;;;16.90
15680;BMP180;15488;48.114;11.532;2023-11-19T08:09:45;95239.00;;;16.90
15680;BMP180;15488;48.114;11.532;2023-11-19T08:12:14;95248.00;;;16.90
15680;BMP180;15488;48.114;11.532;2023-11-19T08:14:43;95250.00;;;16.90
15680;BMP180;15488;48.114;11.532;2023-11-19T08:17:11;95243.00;;;17.00
15680;BMP180;15488;48.114;11.532;2023-11-19T08:19:38;95253.00;;;17.10
15680;BMP180;15488;48.114;11.532;2023-11-19T08:22:06;95235.00;;;17.10
15680;BMP180;15488;48.114;11.532;2023-11-19T08:24:35;95247.00;;;17.20
15680;BMP180;15488;48.114;11.532;2023-11-19T08:27:02;95246.00;;;17.30
15680;BMP180;15488;48.114;11.532;2023-11-19T08:29:32;95245.00;;;17.30
15680;BMP180;15488;48.114;11.532;2023-11-19T08:32:01;95249.00;;;17.30
15680;BMP180;15488;48.114;11.532;2023-11-19T08:34:29;95254.00;;;17.30
15680;BMP180;15488;48.114;11.532;2023-11-19T08:36:57;95244.00;;;17.20
15680;BMP180;15488;48.114;11.532;2023-11-19T08:39:24;95240.00;;;17.30
15680;BMP180;15488;48.114;11.532;2023-11-19T08:41:52;95247.00;;;17.20
15680;BMP180;15488;48.114;11.532;2023-11-19T08:44:19;95239.00;;;17.20
15680;BMP180;15488;48.114;11.532;2023-11-19T08:46:49;95240.00;;;17.30
15680;BMP180;15488;48.114;11.532;2023-11-19T08:49:16;95245.00;;;17.40
15680;BMP180;15488;48.114;11.532;2023-11-19T08:51:44;95257.00;;;17.40
15680;BMP180;15488;48.114;11.532;2023-11-19T08:54:11;95241.00;;;17.40
15680;BMP180;15488;48.114;11.532;2023-11-19T08:56:39;95247.00;;;17.50
15680;BMP180;15488;48.114;11.532;2023-11-19T08:59:07;95251.00;;;17.50
15680;BMP180;15488;48.114;11.532;2023-11-19T09:01:34;95241.00;;;17.50
15680;BMP180;15488;48.114;11.532;2023-11-19T09:04:03;95247.00;;;17.60
15680;BMP180;15488;48.114;11.532;2023-11-19T09:06:32;95239.00;;;17.70
15680;BMP180;15488;48.114;11.532;2023-11-19T09:08:59;95246.00;;;17.60
15680;BMP180;15488;48.114;11.532;2023-11-19T09:11:28;95247.00;;;17.60
15680;BMP180;15488;48.114;11.532;2023-11-19T09:13:56;95238.00;;;17.60
15680;BMP180;15488;48.114;11.532;2023-11-19T09:16:25;95224.00;;;17.70
15680;BMP180;15488;48.114;11.532;2023-11-19T09:18:52;95248.00;;;17.60
15680;BMP180;15488;48.114;11.532;2023-11-19T09:21:21;95249.00;;;17.50
15680;BMP180;15488;48.114;11.532;2023-11-19T09:23:49;95263.00;;;17.40
15680;BMP180;15488;48.114;11.532;2023-11-19T09:26:16;95269.00;;;17.40
15680;BMP180;15488;48.114;11.532;2023-11-19T09:28:44;95269.00;;;17.40
15680;BMP180;15488;48.114;11.532;2023-11-19T09:31:14;95269.00;;;17.50
15680;BMP180;15488;48.114;11.532;2023-11-19T09:33:42;95269.00;;;17.50
15680;BMP180;15488;48.114;11.532;2023-11-19T09:36:11;95274.00;;;17.50
15680;BMP180;15488;48.114;11.532;2023-11-19T09:38:41;95292.00;;;17.60
15680;BMP180;15488;48.114;11.532;2023-11-19T09:41:10;95286.00;;;17.50
15680;BMP180;15488;48.114;11.532;2023-11-19T09:43:41;95270.00;;;17.60
15680;BMP180;15488;48.114;11.532;2023-11-19T09:46:10;95270.00;;;17.60
15680;BMP180;15488;48.114;11.532;2023-11-19T09:48:38;95266.00;;;17.50
15680;BMP180;15488;48.114;11.532;2023-11-19T09:51:06;95252.00;;;17.60
15680;BMP180;15488;48.114;11.532;2023-11-19T09:53:34;95260.00;;;17.60
15680;BMP180;15488;48.114;11.532;2023-11-19T09:56:05;95257.00;;;17.60
15680;BMP180;15488;48.114;11.532;2023-11-19T09:58:34;95252.00;;;17.70
15680;BMP180;15488;48.114;11.532;2023-11-19T10:01:01;95255.00;;;17.80
15680;BMP180;15488;48.114;11.532;2023-11-19T10:03:33;95248.00;;;17.80
15680;BMP180;15488;48.114;11.532;2023-11-19T10:06:04;95233.00;;;17.90
15680;BMP180;15488;48.114;11.532;2023-11-19T10:08:34;95229.00;;;17.90
15680;BMP180;15488;48.114;11.532;2023-11-19T10:11:03;95231.00;;;18.00
15680;BMP180;15488;48.114;11.532;2023-11-19T10:13:30;95229.00;;;18.00
15680;BMP180;15488;48.114;11.532;2023-11-19T10:15:58;95227.00;;;18.10
15680;BMP180;15488;48.114;11.532;2023-11-19T10:18:26;95225.00;;;18.20
15680;BMP180;15488;48.114;11.532;2023-11-19T10:20:54;95222.00;;;18.30
15680;BMP180;15488;48.114;11.532;2023-11-19T10:23:22;95223.00;;;18.20
15680;BMP180;15488;48.114;11.532;2023-11-19T10:25:53;95216.00;;;18.30
15680;BMP180;15488;48.114;11.532;2023-11-19T10:28:22;95210.00;;;18.40
15680;BMP180;15488;48.114;11.532;2023-11-19T10:30:50;95217.00;;;18.30
15680;BMP180;15488;48.114;11.532;2023-11-19T10:33:22;95208.00;;;18.40
15680;BMP180;15488;48.114;11.532;2023-11-19T10:35:53;95224.00;;;18.40
15680;BMP180;15488;48.114;11.532;2023-11-19T10:38:22;95146.00;;;18.30
15680;BMP180;15488;48.114;11.532;2023-11-19T10:40:50;95213.00;;;18.30
15680;BMP180;15488;48.114;11.532;2023-11-19T10:43:18;95201.00;;;18.30
15680;BMP180;15488;48.114;11.532;2023-11-19T10:45:47;95196.00;;;18.40
15680;BMP180;15488;48.114;11.532;2023-11-19T10:48:15;95201.00;;;18.40
15680;BMP180;15488;48.114;11.532;2023-11-19T10:50:43;95193.00;;;18.50
15680;BMP180;15488;48.114;11.532;2023-11-19T10:53:11;95179.00;;;18.70
15680;BMP180;15488;48.114;11.532;2023-11-19T10:55:39;95172.00;;;18.80
15680;BMP180;15488;48.114;11.532;2023-11-19T10:58:08;95180.00;;;18.90
15680;BMP180;15488;48.114;11.532;2023-11-19T11:00:39;95176.00;;;18.90
15680;BMP180;15488;48.114;11.532;2023-11-19T11:03:18;95194.00;;;19.00
15680;BMP180;15488;48.114;11.532;2023-11-19T11:05:48;95184.00;;;19.20
15680;BMP180;15488;48.114;11.532;2023-11-19T11:08:16;95169.00;;;19.20
15680;BMP180;15488;48.114;11.532;2023-11-19T11:10:45;95144.00;;;19.20
15680;BMP180;15488;48.114;11.532;2023-11-19T11:13:15;95174.00;;;19.20
15680;BMP180;15488;48.114;11.532;2023-11-19T11:15:43;95186.00;;;19.20
15680;BMP180;15488;48.114;11.532;2023-11-19T11:18:14;95174.00;;;19.20
15680;BMP180;15488;48.114;11.532;2023-11-19T11:20:42;95170.00;;;19.40
15680;BMP180;15488;48.114;11.532;2023-11-19T11:26:26;95179.00;;;19.40
15680;BMP180;15488;48.114;11.532;2023-11-19T11:28:59;95173.00;;;19.40
15680;BMP180;15488;48.114;11.532;2023-11-19T11:31:36;95154.00;;;19.50
15680;BMP180;15488;48.114;11.532;2023-11-19T11:34:27;95183.00;;;19.40
15680;BMP180;15488;48.114;11.532;2023-11-19T11:37:06;95165.00;;;19.60
15680;BMP180;15488;48.114;11.532;2023-11-19T11:39:36;95162.00;;;19.60
15680;BMP180;15488;48.114;11.532;2023-11-19T11:42:34;95154.00;;;19.70
15680;BMP180;15488;48.114;11.532;2023-11-19T11:45:03;95159.00;;;19.70
15680;BMP180;15488;48.114;11.532;2023-11-19T11:50:54;95146.00;;;19.70
15680;BMP180;15488;48.114;11.532;2023-11-19T11:53:23;95138.00;;;19.60
15680;BMP180;15488;48.114;11.532;2023-11-19T11:55:57;95145.00;;;19.50
15680;BMP180;15488;48.114;11.532;2023-11-19T11:58:37;95150.00;;;19.60
15680;BMP180;15488;48.114;11.532;2023-11-19T12:01:08;95158.00;;;19.70
15680;BMP180;15488;48.114;11.532;2023-11-19T12:03:46;95160.00;;;19.70
15680;BMP180;15488;48.114;11.532;2023-11-19T12:06:15;95143.00;;;19.70
15680;BMP180;15488;48.114;11.532;2023-11-19T12:08:43;95146.00;;;19.80
15680;BMP180;15488;48.114;11.532;2023-11-19T12:11:11;95144.00;;;19.80
15680;BMP180;15488;48.114;11.532;2023-11-19T12:13:53;95151.00;;;19.90
15680;BMP180;15488;48.114;11.532;2023-11-19T12:16:24;95154.00;;;19.80
15680;BMP180;15488;48.114;11.532;2023-11-19T12:18:53;95170.00;;;19.80
15680;BMP180;15488;48.114;11.532;2023-11-19T12:21:32;95168.00;;;19.90
15680;BMP180;15488;48.114;11.532;2023-11-19T12:24:00;95159.00;;;19.90
15680;BMP180;15488;48.114;11.532;2023-11-19T12:26:38;95163.00;;;19.90
15680;BMP180;15488;48.114;11.532;2023-11-19T12:29:05;95161.00;;;19.90
15680;BMP180;15488;48.114;11.532;2023-11-19T12:31:34;95149.00;;;19.90
15680;BMP180;15488;48.114;11.532;2023-11-19T12:34:10;95151.00;;;20.00
15680;BMP180;15488;48.114;11.532;2023-11-19T12:36:41;95152.00;;;19.90
15680;BMP180;15488;48.114;11.532;2023-11-19T12:39:09;95131.00;;;19.90
15680;BMP180;15488;48.114;11.532;2023-11-19T12:41:54;95122.00;;;20.00
15680;BMP180;15488;48.114;11.532;2023-11-19T12:44:23;95127.00;;;20.00
15680;BMP180;15488;48.114;11.532;2023-11-19T12:47:01;95125.00;;;20.10
15680;BMP180;15488;48.114;11.532;2023-11-19T12:49:28;95124.00;;;20.20
15680;BMP180;15488;48.114;11.532;2023-11-19T12:51:57;95117.00;;;20.30
15680;BMP180;15488;48.114;11.532;2023-11-19T12:54:35;95108.00;;;20.40
15680;BMP180;15488;48.114;11.532;2023-11-19T12:57:04;95114.00;;;20.40
15680;BMP180;15488;48.114;11.532;2023-11-19T12:59:32;95105.00;;;20.40
15680;BMP180;15488;48.114;11.532;2023-11-19T13:01:59;95101.00;;;20.30
15680;BMP180;15488;48.114;11.532;2023-11-19T13:04:29;95102.00;;;20.40
15680;BMP180;15488;48.114;11.532;2023-11-19T13:06:59;95112.00;;;20.50
15680;BMP180;15488;48.114;11.532;2023-11-19T13:09:27;95113.00;;;20.70
15680;BMP180;15488;48.114;11.532;2023-11-19T13:11:55;95111.00;;;20.70
15680;BMP180;15488;48.114;11.532;2023-11-19T13:14:23;95105.00;;;20.80
15680;BMP180;15488;48.114;11.532;2023-11-19T13:16:50;95105.00;;;20.80
15680;BMP180;15488;48.114;11.532;2023-11-19T13:19:20;95101.00;;;20.80
15680;BMP180;15488;48.114;11.532;2023-11-19T13:21:49;95104.00;;;20.80
15680;BMP180;15488;48.114;11.532;2023-11-19T13:24:18;95119.00;;;20.80
15680;BMP180;15488;48.114;11.532;2023-11-19T13:26:46;95109.00;;;20.80
15680;BMP180;15488;48.114;11.532;2023-11-19T13:29:13;95101.00;;;20.80
15680;BMP180;15488;48.114;11.532;2023-11-19T13:31:40;95096.00;;;20.90
15680;BMP180;15488;48.114;11.532;2023-11-19T13:34:08;95094.00;;;20.90
15680;BMP180;15488;48.114;11.532;2023-11-19T13:36:36;95097.00;;;20.70
15680;BMP180;15488;48.114;11.532;2023-11-19T13:39:03;95104.00;;;20.60
15680;BMP180;15488;48.114;11.532;2023-11-19T13:41:32;95098.00;;;20.50
15680;BMP180;15488;48.114;11.532;2023-11-19T13:44:00;95098.00;;;20.50
15680;BMP180;15488;48.114;11.532;2023-11-19T13:46:27;95093.00;;;20.40
15680;BMP180;15488;48.114;11.532;2023-11-19T13:48:54;95089.00;;;20.50
15680;BMP180;15488;48.114;11.532;2023-11-19T13:51:22;95093.00;;;20.40
15680;BMP180;15488;48.114;11.532;2023-11-19T13:53:50;95098.00;;;20.30
15680;BMP180;15488;48.114;11.532;2023-11-19T13:56:17;95110.00;;;20.30
15680;BMP180;15488;48.114;11.532;2023-11-19T13:58:46;95096.00;;;20.20
15680;BMP180;15488;48.114;11.532;2023-11-19T14:01:14;95099.00;;;20.10
15680;BMP180;15488;48.114;11.532;2023-11-19T14:03:41;95095.00;;;20.00
15680;BMP180;15488;48.114;11.532;2023-11-19T14:06:09;95092.00;;;19.90
15680;BMP180;15488;48.114;11.532;2023-11-19T14:08:36;95082.00;;;20.00
15680;BMP180;15488;48.114;11.532;2023-11-19T14:11:04;95084.00;;;19.80